EETU

Tartu Airport

Tartu, Estonia
METAR EETU 110150Z AUTO 05003KT 0550 R08/1700N -RASN OVC001/// 00/00 Q1004
Observed Flight Rules
Dec-11 @ 01:50 UTC (34 minutes ago) Instrument Flight Rules
Wind Visibility Clouds Conditions
50° at 3 knots 547 meters
  • Overcast at 100' AGL
  • Light Rain
  • Light Snow
Temperatures Readings
Current 0°C / 32°F
Dewpoint 0°C / 32°F
Humidity 100%
Altimeter 29.65" Hg
Pressure 1004 hPa
Elevation 67
METAR EETU 110150Z AUTO 05003KT 0550 R08/1700N -RASN OVC001/// 00/00 Q1004
Observed Flight Rules
Dec-11 @ 01:50 UTC
(34 minutes ago)
LIFR
Wind Visibility
50° at 3 knots 547 meters
Clouds
  • Overcast at 100' AGL
Conditions
  • Light Rain
  • Light Snow
Temperature Dewpoint
0°C / 32°F 0°C / 32°F
Humidity Altimeter Pressure
100% 29.65" Hg 1004 hPa